Time;durP1;ratioP1;P1;durP2;ratioP2;P2;SDS_P1;SDS_P2;PMS_P1;PMS_P2;Temp;Humidity;BMP_temperature;BMP_pressure;BME280_temperature;BME280_humidity;BME280_pressure;Samples;Min_cycle;Max_cycle;Signal;HPM_P1;HPM_P2
2022/01/18 00:02:21;;;;;;;22.20;12.65;;;2.50;99.90;;;;;;4852083;29;20132;-81
2022/01/18 00:05:14;;;;;;;26.95;13.95;;;2.50;99.90;;;;;;4868392;29;20394;-82
2022/01/18 00:08:02;;;;;;;25.75;14.20;;;2.40;99.90;;;;;;4861016;29;20068;-81
2022/01/18 00:10:51;;;;;;;30.10;15.27;;;2.30;99.90;;;;;;4847245;29;20140;-82
2022/01/18 00:13:45;;;;;;;27.27;15.23;;;2.30;99.90;;;;;;4853522;29;20056;-81
2022/01/18 00:16:40;;;;;;;25.42;15.05;;;2.30;99.90;;;;;;4873921;29;20056;-81
2022/01/18 00:19:33;;;;;;;29.33;15.20;;;2.30;99.90;;;;;;4860768;29;20455;-81
2022/01/18 00:22:26;;;;;;;26.42;14.82;;;2.30;99.90;;;;;;4864502;29;20395;-83
2022/01/18 00:25:13;;;;;;;28.90;14.77;;;2.30;99.90;;;;;;4873414;29;20048;-81
2022/01/18 00:28:06;;;;;;;25.90;14.82;;;2.30;99.90;;;;;;4877105;29;20063;-82
2022/01/18 00:34:32;;;;;;;29.38;15.25;;;2.30;99.90;;;;;;4871065;29;20127;-82
2022/01/18 00:37:32;;;;;;;29.40;15.07;;;2.30;99.90;;;;;;4852132;29;20044;-83
2022/01/18 00:40:20;;;;;;;26.27;15.75;;;2.30;99.90;;;;;;4852379;29;20053;-82
2022/01/18 00:43:07;;;;;;;28.30;15.23;;;2.30;99.90;;;;;;4856233;29;20049;-82
2022/01/18 00:45:54;;;;;;;26.33;15.45;;;2.30;99.90;;;;;;4845427;29;20057;-82
2022/01/18 00:48:44;;;;;;;26.67;15.73;;;2.30;99.90;;;;;;4874382;29;20068;-82
2022/01/18 00:51:38;;;;;;;30.70;16.70;;;2.30;99.90;;;;;;4875384;29;20391;-83
2022/01/18 00:54:33;;;;;;;26.70;16.70;;;2.30;99.90;;;;;;4865248;29;20068;-82
2022/01/18 00:57:20;;;;;;;27.25;15.63;;;2.30;99.90;;;;;;4848406;29;20125;-81
2022/01/18 01:00:08;;;;;;;27.15;15.95;;;2.20;99.90;;;;;;4862197;29;20072;-82
2022/01/18 01:02:55;;;;;;;28.23;16.45;;;2.30;99.90;;;;;;4877272;29;20041;-83
2022/01/18 01:05:43;;;;;;;29.83;15.80;;;2.30;99.90;;;;;;4876617;29;20058;-82
2022/01/18 01:08:34;;;;;;;31.17;16.95;;;2.30;99.90;;;;;;4838227;29;20073;-82
2022/01/18 01:11:22;;;;;;;26.73;16.55;;;2.30;99.90;;;;;;4862688;29;20069;-82
2022/01/18 01:14:16;;;;;;;28.98;17.88;;;2.30;99.90;;;;;;4869590;29;20135;-81
2022/01/18 01:17:20;;;;;;;35.63;18.17;;;2.40;99.90;;;;;;4868245;29;20139;-80
2022/01/18 01:44:42;;;;;;;25.85;15.45;;;2.40;99.90;;;;;;4873011;29;20057;-80
2022/01/18 01:47:37;;;;;;;28.90;15.35;;;2.40;99.90;;;;;;4861421;29;20112;-83
2022/01/18 01:50:29;;;;;;;28.83;14.88;;;2.40;99.90;;;;;;4881966;29;20053;-80
2022/01/18 01:53:18;;;;;;;28.35;16.17;;;2.40;99.90;;;;;;4878677;29;20052;-81
2022/01/18 01:56:07;;;;;;;27.20;15.95;;;2.40;99.90;;;;;;4870693;29;20101;-80
2022/01/18 01:58:58;;;;;;;32.03;16.48;;;2.40;99.90;;;;;;4888459;29;20053;-81
2022/01/18 02:01:48;;;;;;;26.23;15.50;;;2.40;99.90;;;;;;4890036;29;20060;-80
2022/01/18 02:04:36;;;;;;;29.90;17.02;;;2.40;99.90;;;;;;4887938;29;20376;-81
2022/01/18 02:07:27;;;;;;;27.45;16.50;;;2.40;99.90;;;;;;4895147;29;20059;-81
2022/01/18 02:10:16;;;;;;;39.63;18.88;;;2.40;99.90;;;;;;4893725;29;20542;-83
2022/01/18 02:13:05;;;;;;;31.88;18.77;;;2.30;99.90;;;;;;4878110;29;20105;-82
2022/01/18 02:21:56;;;;;;;39.53;19.73;;;2.30;99.90;;;;;;4880189;29;20053;-83
2022/01/18 02:24:44;;;;;;;38.58;21.00;;;2.30;99.90;;;;;;4864027;29;20057;-81
2022/01/18 02:27:31;;;;;;;33.42;18.58;;;2.30;99.90;;;;;;4875824;29;20124;-83
2022/01/18 02:30:21;;;;;;;33.25;19.15;;;2.40;99.90;;;;;;4867495;29;20060;-82
2022/01/18 02:33:15;;;;;;;37.90;19.95;;;2.40;99.90;;;;;;4891623;29;20045;-83
2022/01/18 02:36:08;;;;;;;41.75;19.33;;;2.40;99.90;;;;;;4871175;29;20053;-83
2022/01/18 02:38:56;;;;;;;35.85;19.02;;;2.40;99.90;;;;;;4889718;29;20132;-80
2022/01/18 02:41:50;;;;;;;35.30;19.63;;;2.40;99.90;;;;;;4857092;29;20084;-81
2022/01/18 02:44:38;;;;;;;34.65;18.50;;;2.40;99.90;;;;;;4862473;29;20045;-82
2022/01/18 02:47:25;;;;;;;34.05;19.55;;;2.40;99.90;;;;;;4852764;29;20061;-83
2022/01/18 02:50:15;;;;;;;35.53;19.15;;;2.50;99.90;;;;;;4859217;29;20136;-82
2022/01/18 02:53:02;;;;;;;37.65;19.35;;;2.50;99.90;;;;;;4841752;29;20536;-83
2022/01/18 02:55:55;;;;;;;41.10;18.42;;;2.50;99.90;;;;;;4875722;29;20136;-81
2022/01/18 02:58:43;;;;;;;27.58;15.25;;;2.40;99.90;;;;;;4892371;29;20049;-80
2022/01/18 03:04:42;;;;;;;38.75;20.38;;;2.40;99.90;;;;;;4900574;29;20072;-81
2022/01/18 03:07:30;;;;;;;;;;;2.40;99.90;;;;;;4881645;29;20101;-83
2022/01/18 03:10:18;;;;;;;39.30;19.27;;;2.40;99.90;;;;;;4874342;29;20314;-81
2022/01/18 03:13:07;;;;;;;37.42;18.48;;;2.40;99.90;;;;;;4867124;29;20064;-81
2022/01/18 03:15:57;;;;;;;37.08;18.83;;;2.40;99.90;;;;;;4865763;29;20045;-80
2022/01/18 03:18:49;;;;;;;42.47;20.80;;;2.50;99.90;;;;;;4888326;29;20072;-79
2022/01/18 03:21:37;;;;;;;46.97;22.52;;;2.40;99.90;;;;;;4887813;29;20057;-81
2022/01/18 03:30:18;;;;;;;42.15;20.50;;;2.50;99.90;;;;;;4888515;29;20092;-83
2022/01/18 03:33:10;;;;;;;42.28;21.63;;;2.50;99.90;;;;;;4888062;29;20073;-82
2022/01/18 03:35:58;;;;;;;40.90;19.98;;;2.50;99.90;;;;;;4879923;29;20049;-80
2022/01/18 03:38:46;;;;;;;47.17;22.17;;;2.50;99.90;;;;;;4900301;29;20108;-82
2022/01/18 03:41:36;;;;;;;41.70;21.65;;;2.50;99.90;;;;;;4888037;29;20107;-81
2022/01/18 03:44:26;;;;;;;42.70;21.75;;;2.40;99.90;;;;;;4883297;29;20141;-82
2022/01/18 03:47:14;;;;;;;49.63;23.58;;;2.40;99.90;;;;;;4896357;29;20082;-82
2022/01/18 03:50:04;;;;;;;42.47;21.52;;;2.40;99.90;;;;;;4897455;29;20048;-83
2022/01/18 03:52:52;;;;;;;44.83;23.08;;;2.40;99.90;;;;;;4905449;29;20044;-82
2022/01/18 03:55:40;;;;;;;50.15;21.67;;;2.40;99.90;;;;;;4892805;29;20143;-82
2022/01/18 03:58:27;;;;;;;47.55;23.10;;;2.40;99.90;;;;;;4885617;29;20129;-81
2022/01/18 04:01:15;;;;;;;43.42;21.73;;;2.40;99.90;;;;;;4871035;29;20046;-82
2022/01/18 04:04:04;;;;;;;41.97;20.00;;;2.40;99.90;;;;;;4880875;29;20091;-81
2022/01/18 04:06:53;;;;;;;39.33;20.00;;;2.40;99.90;;;;;;4885569;29;20040;-82
2022/01/18 04:09:41;;;;;;;40.95;20.50;;;2.40;99.90;;;;;;4874450;29;20048;-82
2022/01/18 04:12:29;;;;;;;45.00;20.55;;;2.40;99.90;;;;;;4883524;29;20072;-81
2022/01/18 04:15:17;;;;;;;44.92;21.08;;;2.40;99.90;;;;;;4889624;29;20148;-81
2022/01/18 04:27:31;;;;;;;48.10;22.10;;;2.50;99.90;;;;;;4877844;29;20637;-81
2022/01/18 04:30:20;;;;;;;49.13;22.92;;;2.40;99.90;;;;;;4868882;29;20492;-81
2022/01/18 04:33:10;;;;;;;44.80;22.50;;;2.40;99.90;;;;;;4851648;29;20080;-81
2022/01/18 04:35:59;;;;;;;55.95;25.35;;;2.40;99.90;;;;;;4855419;29;20149;-83
2022/01/18 04:38:48;;;;;;;51.53;23.25;;;2.40;99.90;;;;;;4867542;29;20060;-83
2022/01/18 04:41:39;;;;;;;54.80;23.80;;;2.50;99.90;;;;;;4883301;29;20056;-79
2022/01/18 04:50:37;;;;;;;56.70;24.20;;;2.60;99.90;;;;;;4872187;29;20060;-82
2022/01/18 04:53:27;;;;;;;72.18;28.02;;;2.60;99.90;;;;;;4886450;29;20068;-82
2022/01/18 04:56:29;;;;;;;85.43;31.60;;;2.60;99.90;;;;;;4863645;29;20061;-81
2022/01/18 04:59:19;;;;;;;82.18;31.25;;;2.60;99.90;;;;;;4867151;29;20061;-84
2022/01/18 05:02:07;;;;;;;81.05;31.90;;;2.70;99.90;;;;;;4864935;29;20057;-81
2022/01/18 05:04:56;;;;;;;83.97;31.67;;;2.70;99.90;;;;;;4867696;29;20378;-81
2022/01/18 05:07:48;;;;;;;93.60;34.15;;;2.70;99.90;;;;;;4874321;29;20057;-80
2022/01/18 05:10:36;;;;;;;82.75;32.58;;;2.70;99.90;;;;;;4857847;29;20045;-81
2022/01/18 05:19:58;;;;;;;105.55;33.90;;;2.80;99.90;;;;;;4884160;29;20079;-82
2022/01/18 05:23:03;;;;;;;94.72;34.28;;;2.70;99.90;;;;;;4863674;29;20060;-83
2022/01/18 05:25:51;;;;;;;107.05;36.25;;;2.80;99.90;;;;;;4873174;29;20040;-81
2022/01/18 05:28:40;;;;;;;102.28;36.75;;;2.80;99.90;;;;;;4871747;29;20042;-81
2022/01/18 05:31:27;;;;;;;107.72;36.90;;;2.70;99.90;;;;;;4875752;29;20560;-82
2022/01/18 06:03:03;;;;;;;102.68;35.85;;;2.60;99.90;;;;;;4807060;29;20369;-82
2022/01/18 06:09:03;;;;;;;93.53;34.08;;;2.60;99.90;;;;;;4878107;29;20289;-80
2022/01/18 06:11:50;;;;;;;110.00;38.95;;;2.60;99.90;;;;;;4880509;29;20079;-82
2022/01/18 06:14:38;;;;;;;122.72;38.95;;;2.60;99.90;;;;;;4881121;29;20494;-82
2022/01/18 06:17:29;;;;;;;132.30;40.50;;;2.60;99.90;;;;;;4870117;29;20071;-81
2022/01/18 06:20:16;;;;;;;104.32;35.70;;;2.70;99.90;;;;;;4885307;29;20059;-81
2022/01/18 06:23:03;;;;;;;75.50;30.17;;;2.70;99.90;;;;;;4893045;29;20595;-81
2022/01/18 06:25:54;;;;;;;109.28;36.67;;;2.70;99.90;;;;;;4866001;29;20053;-80
2022/01/18 07:12:18;;;;;;;148.73;43.08;;;2.60;99.90;;;;;;4891328;29;20037;-80
2022/01/18 07:15:07;;;;;;;146.35;44.20;;;2.50;99.90;;;;;;4895255;29;20139;-79
2022/01/18 07:17:57;;;;;;;146.07;43.78;;;2.60;99.90;;;;;;4886220;29;20131;-82
2022/01/18 07:20:45;;;;;;;149.77;46.90;;;2.50;99.90;;;;;;4871387;29;20044;-77
2022/01/18 07:23:34;;;;;;;150.05;44.92;;;2.60;99.90;;;;;;4903644;29;20055;-77
2022/01/18 07:26:24;;;;;;;113.80;40.83;;;2.60;99.90;;;;;;4888813;29;20060;-78
2022/01/18 07:29:13;;;;;;;136.05;41.92;;;2.50;99.90;;;;;;4882630;29;20048;-79
2022/01/18 07:32:01;;;;;;;136.82;43.65;;;2.50;99.90;;;;;;4904368;29;20050;-79
2022/01/18 07:34:54;;;;;;;124.03;41.15;;;2.50;99.90;;;;;;4885879;29;20044;-81
2022/01/18 07:37:43;;;;;;;140.25;44.17;;;2.50;99.90;;;;;;4903985;29;20056;-78
2022/01/18 07:40:32;;;;;;;144.27;45.10;;;2.50;99.90;;;;;;4863698;29;20072;-80
2022/01/18 07:43:22;;;;;;;129.02;43.75;;;2.50;99.90;;;;;;4900531;29;20067;-79
2022/01/18 07:46:15;;;;;;;133.27;45.65;;;2.50;99.90;;;;;;4914324;29;20079;-80
2022/01/18 07:49:05;;;;;;;137.25;44.55;;;2.50;99.90;;;;;;4886200;29;20192;-78
2022/01/18 07:51:52;;;;;;;138.93;46.60;;;2.50;99.90;;;;;;4884460;29;20072;-78
2022/01/18 07:54:39;;;;;;;146.88;47.08;;;2.60;99.90;;;;;;4889559;29;20055;-80
2022/01/18 07:57:31;;;;;;;140.85;47.42;;;2.50;99.90;;;;;;4880513;29;20370;-77
2022/01/18 08:00:19;;;;;;;141.57;48.55;;;2.60;99.90;;;;;;4881804;29;20101;-78
2022/01/18 08:03:09;;;;;;;131.88;47.58;;;2.70;99.90;;;;;;4888616;29;20479;-78
2022/01/18 08:05:57;;;;;;;152.90;50.30;;;2.80;99.90;;;;;;4890372;29;20100;-78
2022/01/18 08:08:45;;;;;;;127.95;45.63;;;2.80;99.90;;;;;;4892159;29;20045;-77
2022/01/18 08:11:32;;;;;;;123.25;45.50;;;3.00;99.90;;;;;;4867311;29;20056;-78
2022/01/18 08:14:22;;;;;;;126.47;44.17;;;3.00;99.90;;;;;;4888537;29;20470;-79
2022/01/18 08:17:13;;;;;;;119.95;43.45;;;3.10;99.90;;;;;;4896883;29;20147;-79
2022/01/18 08:20:00;;;;;;;112.85;41.53;;;3.30;99.90;;;;;;4897881;29;20074;-78
2022/01/18 08:22:47;;;;;;;99.00;39.05;;;3.30;99.90;;;;;;4878994;29;20144;-78
2022/01/18 08:25:39;;;;;;;96.93;39.25;;;3.20;99.90;;;;;;4886805;29;20048;-78
2022/01/18 08:28:26;;;;;;;93.18;37.00;;;3.20;99.90;;;;;;4875737;29;20051;-80
2022/01/18 08:31:15;;;;;;;79.03;34.40;;;3.30;99.90;;;;;;4889580;29;20062;-78
2022/01/18 08:34:06;;;;;;;80.00;35.13;;;3.30;99.90;;;;;;4899023;29;20052;-79
2022/01/18 08:36:55;;;;;;;73.30;33.05;;;3.20;99.90;;;;;;4879328;29;20053;-77
2022/01/18 08:39:46;;;;;;;73.55;30.85;;;3.30;99.90;;;;;;4879982;29;20128;-79
2022/01/18 08:42:38;;;;;;;64.50;31.85;;;3.30;99.90;;;;;;4898723;29;20379;-79
2022/01/18 08:45:26;;;;;;;67.60;31.77;;;3.40;99.90;;;;;;4892268;29;20451;-80
2022/01/18 08:48:14;;;;;;;60.42;27.85;;;3.60;99.90;;;;;;4886141;29;20083;-81
2022/01/18 08:51:03;;;;;;;54.70;28.25;;;3.70;99.90;;;;;;4887076;29;20049;-81
2022/01/18 08:53:52;;;;;;;55.08;27.92;;;3.90;99.90;;;;;;4900815;29;20044;-80
2022/01/18 08:56:40;;;;;;;52.28;26.63;;;4.00;99.90;;;;;;4886800;29;20094;-80
2022/01/18 08:59:43;;;;;;;53.13;27.42;;;4.10;99.90;;;;;;4882814;29;20052;-80
2022/01/18 09:02:30;;;;;;;57.47;26.73;;;4.30;99.90;;;;;;4874419;29;20063;-81
2022/01/18 09:05:22;;;;;;;53.60;25.77;;;4.40;99.90;;;;;;4882448;29;20044;-80
2022/01/18 09:08:13;;;;;;;44.20;23.98;;;4.50;99.90;;;;;;4881407;29;20298;-78
2022/01/18 09:11:00;;;;;;;49.13;23.17;;;4.50;99.90;;;;;;4882210;29;20043;-79
2022/01/18 09:13:49;;;;;;;42.45;22.17;;;4.60;99.90;;;;;;4875780;29;20044;-81
2022/01/18 09:16:36;;;;;;;40.50;20.88;;;4.90;99.90;;;;;;4885856;29;20044;-82
2022/01/18 09:19:27;;;;;;;43.30;22.38;;;5.20;99.90;;;;;;4897956;29;20044;-80
2022/01/18 09:22:15;;;;;;;40.63;20.23;;;5.50;99.90;;;;;;4882046;29;20041;-77
2022/01/18 09:25:05;;;;;;;38.25;21.08;;;5.90;99.90;;;;;;4886595;29;20041;-80
2022/01/18 09:27:57;;;;;;;38.17;20.02;;;6.40;99.90;;;;;;4885077;29;20117;-78
2022/01/18 09:30:46;;;;;;;36.47;20.92;;;6.70;99.90;;;;;;4875968;29;20219;-81
2022/01/18 09:33:37;;;;;;;36.55;20.08;;;6.80;99.90;;;;;;4873268;29;20530;-79
2022/01/18 09:36:29;;;;;;;38.72;21.20;;;7.10;99.90;;;;;;4887806;29;20076;-79
2022/01/18 09:39:16;;;;;;;33.88;19.00;;;7.10;99.90;;;;;;4888760;29;20043;-77
2022/01/18 09:42:07;;;;;;;44.20;20.98;;;7.00;99.90;;;;;;4892711;29;20056;-78
2022/01/18 09:44:54;;;;;;;38.47;20.80;;;6.70;99.90;;;;;;4885863;29;20055;-77
2022/01/18 09:47:45;;;;;;;38.85;19.15;;;6.40;99.90;;;;;;4878684;29;20044;-81
2022/01/18 09:50:35;;;;;;;44.40;21.38;;;6.10;99.90;;;;;;4886093;29;20040;-80
2022/01/18 09:53:24;;;;;;;39.83;21.38;;;5.80;99.90;;;;;;4899204;29;20075;-78
2022/01/18 09:56:15;;;;;;;38.35;20.55;;;5.70;99.90;;;;;;4888857;29;20048;-79
2022/01/18 09:59:04;;;;;;;37.22;21.73;;;5.70;99.90;;;;;;4878288;29;20066;-80
2022/01/18 10:02:01;;;;;;;40.05;21.25;;;5.80;99.90;;;;;;4891199;29;20044;-80
2022/01/18 10:04:54;;;;;;;36.25;20.45;;;6.30;99.90;;;;;;4873302;29;20057;-77
2022/01/18 10:07:42;;;;;;;40.22;21.20;;;6.70;99.90;;;;;;4904436;29;20055;-80
2022/01/18 10:10:46;;;;;;;42.78;19.85;;;6.70;99.90;;;;;;4882100;29;20059;-80
2022/01/18 10:13:34;;;;;;;39.78;20.15;;;6.60;99.90;;;;;;4886317;29;20062;-80
2022/01/18 10:16:23;;;;;;;39.45;21.02;;;6.30;99.90;;;;;;4886200;29;20131;-81
2022/01/18 10:19:32;;;;;;;45.97;21.95;;;6.10;99.90;;;;;;4874106;29;20114;-80
2022/01/18 10:22:30;;;;;;;41.25;22.40;;;6.00;99.90;;;;;;4893190;29;20083;-80
2022/01/18 10:25:28;;;;;;;38.97;22.33;;;6.10;99.90;;;;;;4887196;29;20052;-81
2022/01/18 10:28:34;;;;;;;37.40;20.52;;;6.30;99.90;;;;;;4887744;29;20060;-79
2022/01/18 10:35:04;;;;;;;28.02;16.98;;;7.70;99.90;;;;;;4900696;29;20161;-80
2022/01/18 10:37:52;;;;;;;31.08;16.65;;;8.40;99.90;;;;;;4906029;29;20135;-80
2022/01/18 10:40:40;;;;;;;26.85;16.00;;;9.00;99.90;;;;;;4888814;29;20059;-80
2022/01/18 10:43:33;;;;;;;23.42;12.73;;;10.00;99.90;;;;;;4901942;29;20382;-80
2022/01/18 10:46:30;;;;;;;25.45;14.07;;;9.60;99.90;;;;;;4895847;29;20156;-80
2022/01/18 10:49:45;;;;;;;24.05;13.45;;;9.20;99.90;;;;;;4872803;29;20068;-81
2022/01/18 10:52:34;;;;;;;23.95;14.23;;;8.70;99.90;;;;;;4888267;29;20060;-80
2022/01/18 10:55:25;;;;;;;20.92;13.25;;;9.00;99.90;;;;;;4892201;29;20054;-78
2022/01/18 10:58:22;;;;;;;24.83;13.38;;;9.70;99.90;;;;;;4899290;29;20120;-79
2022/01/18 11:01:19;;;;;;;23.27;13.32;;;10.50;99.90;;;;;;4903166;29;20059;-81
2022/01/18 11:04:15;;;;;;;22.80;11.63;;;11.70;99.90;;;;;;4883200;29;20066;-79
2022/01/18 11:07:05;;;;;;;20.52;12.07;;;12.00;99.90;;;;;;4886283;29;20550;-82
2022/01/18 11:10:03;;;;;;;14.98;10.63;;;13.10;95.00;;;;;;4884297;29;20060;-79
2022/01/18 11:13:11;;;;;;;15.48;9.57;;;13.50;92.10;;;;;;4876421;29;20052;-80
2022/01/18 11:16:04;;;;;;;14.68;9.55;;;13.90;87.80;;;;;;4900253;29;20052;-80
2022/01/18 11:18:56;;;;;;;13.18;8.95;;;13.80;86.50;;;;;;4885106;29;20045;-79
2022/01/18 11:21:48;;;;;;;13.02;8.75;;;13.10;82.70;;;;;;4900677;29;20060;-81
2022/01/18 11:24:40;;;;;;;16.00;9.88;;;12.70;86.10;;;;;;4887158;29;20506;-78
2022/01/18 11:27:30;;;;;;;16.13;8.60;;;13.70;86.10;;;;;;4886922;29;20044;-81
2022/01/18 11:30:21;;;;;;;15.20;9.15;;;15.30;75.80;;;;;;4898847;29;20374;-79
2022/01/18 11:33:12;;;;;;;16.83;8.98;;;15.40;71.70;;;;;;4890669;29;20060;-81
2022/01/18 11:36:12;;;;;;;14.27;8.77;;;15.90;72.00;;;;;;4900457;29;20084;-79
2022/01/18 11:39:06;;;;;;;14.75;9.10;;;16.30;66.40;;;;;;4905116;29;20477;-79
2022/01/18 11:42:17;;;;;;;17.98;10.43;;;16.40;65.50;;;;;;4895545;29;20057;-82
2022/01/18 11:45:28;;;;;;;13.27;8.10;;;16.10;63.00;;;;;;4898650;29;20063;-81
2022/01/18 11:48:20;;;;;;;15.63;7.72;;;16.70;63.50;;;;;;4876127;29;20397;-81
2022/01/18 11:51:14;;;;;;;11.27;7.25;;;16.70;63.00;;;;;;4883690;29;20040;-81
2022/01/18 11:54:19;;;;;;;15.90;9.27;;;16.40;61.60;;;;;;4870434;29;20091;-79
2022/01/18 11:57:26;;;;;;;17.98;9.93;;;14.70;63.30;;;;;;4893705;29;20071;-78
2022/01/18 12:00:23;;;;;;;21.00;10.35;;;12.10;73.90;;;;;;4893018;29;20053;-78
2022/01/18 12:03:22;;;;;;;14.75;9.05;;;10.60;79.80;;;;;;4884258;29;20331;-79
2022/01/18 12:06:10;;;;;;;14.63;8.05;;;9.00;90.60;;;;;;4889123;29;20189;-79
2022/01/18 12:08:59;;;;;;;19.13;9.00;;;8.00;96.10;;;;;;4884243;29;20546;-78
2022/01/18 12:11:47;;;;;;;17.77;9.10;;;8.00;99.90;;;;;;4890380;29;20107;-80
2022/01/18 12:14:36;;;;;;;15.57;8.77;;;9.70;99.40;;;;;;4879978;29;20100;-77
2022/01/18 12:17:26;;;;;;;14.40;8.32;;;11.20;92.70;;;;;;4889661;29;20056;-80
2022/01/18 12:20:35;;;;;;;16.33;9.15;;;10.60;90.70;;;;;;4868864;29;20061;-81
2022/01/18 12:23:40;;;;;;;19.38;9.20;;;9.50;94.20;;;;;;4890952;29;20064;-79
2022/01/18 12:26:40;;;;;;;17.10;9.27;;;8.20;99.90;;;;;;4892112;29;20354;-78
2022/01/18 12:32:40;;;;;;;17.20;8.13;;;6.80;99.90;;;;;;4896106;29;20067;-79
2022/01/18 12:35:32;;;;;;;18.33;9.18;;;6.30;99.90;;;;;;4881563;29;20052;-79
2022/01/18 12:38:24;;;;;;;17.33;8.80;;;6.10;99.90;;;;;;4868468;29;20068;-78
2022/01/18 12:41:48;;;;;;;15.30;8.30;;;6.00;99.90;;;;;;4879554;29;21140;-79
2022/01/18 12:44:43;;;;;;;14.95;7.70;;;5.90;99.90;;;;;;4885220;29;20377;-77
2022/01/18 12:47:31;;;;;;;18.73;7.35;;;5.90;99.90;;;;;;4893392;29;20060;-79
2022/01/18 12:50:23;;;;;;;19.08;7.65;;;5.80;99.90;;;;;;4879071;29;20140;-80
2022/01/18 12:53:23;;;;;;;18.20;8.15;;;5.80;99.90;;;;;;4884564;29;20082;-78
2022/01/18 12:56:19;;;;;;;14.30;7.25;;;5.70;99.90;;;;;;4893606;29;20052;-79
2022/01/18 12:59:06;;;;;;;16.10;6.40;;;5.60;99.90;;;;;;4891583;29;20051;-78
2022/01/18 13:01:59;;;;;;;16.65;7.28;;;5.50;99.90;;;;;;4880745;29;20772;-78
2022/01/18 13:04:58;;;;;;;16.95;7.88;;;5.30;99.90;;;;;;4894825;29;20052;-79
2022/01/18 13:07:53;;;;;;;20.02;8.98;;;5.30;99.90;;;;;;4877666;29;20082;-78
2022/01/18 13:10:44;;;;;;;13.48;7.13;;;5.30;99.90;;;;;;4883803;29;20044;-80
2022/01/18 13:13:34;;;;;;;17.45;8.32;;;5.30;99.90;;;;;;4880935;29;20522;-79
2022/01/18 13:25:29;;;;;;;15.75;8.40;;;5.10;99.90;;;;;;4906838;29;20066;-76
2022/01/18 13:28:36;;;;;;;23.30;9.13;;;5.00;99.90;;;;;;4898907;29;20111;-78
2022/01/18 13:31:25;;;;;;;17.20;8.95;;;4.90;99.90;;;;;;4899102;29;20045;-79
2022/01/18 13:34:16;;;;;;;16.90;8.27;;;4.80;99.90;;;;;;4880120;29;20098;-79
2022/01/18 13:37:09;;;;;;;16.08;8.93;;;4.70;99.90;;;;;;4888953;29;20059;-78
2022/01/18 13:40:02;;;;;;;23.80;11.02;;;4.70;99.90;;;;;;4885818;29;20049;-77
2022/01/18 13:43:00;;;;;;;18.80;10.63;;;4.70;99.90;;;;;;4890520;29;20459;-80
2022/01/18 13:45:47;;;;;;;17.77;9.05;;;6.40;99.90;;;;;;4890088;29;20168;-78
2022/01/18 13:48:37;;;;;;;18.13;8.20;;;8.40;99.90;;;;;;4881062;29;20089;-79
2022/01/18 13:51:25;;;;;;;13.75;8.18;;;10.20;99.90;;;;;;4867073;29;20068;-79
2022/01/18 13:54:16;;;;;;;11.80;7.35;;;11.60;95.50;;;;;;4869402;29;20053;-80
2022/01/18 13:57:06;;;;;;;13.48;7.15;;;11.80;88.00;;;;;;4896275;29;20060;-77
2022/01/18 13:59:55;;;;;;;14.65;6.80;;;11.00;89.90;;;;;;4883017;29;20375;-80
2022/01/18 14:02:46;;;;;;;15.43;6.25;;;10.10;91.20;;;;;;4887788;29;20047;-80
2022/01/18 14:05:46;;;;;;;12.60;6.50;;;8.90;93.60;;;;;;4878162;29;20060;-79
2022/01/18 14:08:36;;;;;;;14.93;6.43;;;8.00;97.70;;;;;;4881787;29;20060;-81
2022/01/18 14:11:31;;;;;;;12.15;6.45;;;7.40;99.90;;;;;;4896638;29;20181;-79
2022/01/18 14:14:29;;;;;;;11.18;5.75;;;6.60;99.90;;;;;;4885277;29;20037;-79
2022/01/18 14:17:21;;;;;;;12.60;7.22;;;6.10;99.90;;;;;;4895140;29;20048;-78
2022/01/18 14:20:15;;;;;;;13.43;7.10;;;5.80;99.90;;;;;;4889902;29;20049;-80
2022/01/18 14:23:03;;;;;;;17.42;7.05;;;5.50;99.90;;;;;;4899949;29;20056;-80
2022/01/18 14:25:51;;;;;;;17.95;8.98;;;5.40;99.90;;;;;;4884031;29;20136;-79
2022/01/18 14:28:39;;;;;;;15.55;7.20;;;5.30;99.90;;;;;;4879900;29;20132;-80
2022/01/18 14:31:29;;;;;;;15.98;7.45;;;5.10;99.90;;;;;;4886893;29;20044;-78
2022/01/18 14:34:36;;;;;;;11.57;6.47;;;5.00;99.90;;;;;;4898268;29;20052;-79
2022/01/18 14:37:59;;;;;;;16.30;6.65;;;4.90;99.90;;;;;;4893049;29;20040;-77
2022/01/18 14:40:51;;;;;;;12.20;5.90;;;4.80;99.90;;;;;;4891732;29;20047;-79
2022/01/18 14:43:42;;;;;;;16.25;5.80;;;4.70;99.90;;;;;;4878326;29;20167;-79
2022/01/18 14:46:57;;;;;;;8.75;4.70;;;4.60;99.90;;;;;;4873397;29;20109;-79
2022/01/18 14:49:40;;;;;;;11.45;4.80;;;4.60;99.90;;;;;;4889758;29;20045;-78
2022/01/18 14:52:31;;;;;;;9.55;4.47;;;4.40;99.90;;;;;;4882998;29;20072;-78
2022/01/18 14:55:22;;;;;;;8.27;4.43;;;4.30;99.90;;;;;;4901675;29;20156;-79
2022/01/18 14:58:17;;;;;;;11.77;5.22;;;4.30;99.90;;;;;;4881810;29;20390;-80
2022/01/18 15:01:08;;;;;;;8.25;4.95;;;4.30;99.90;;;;;;4881305;29;20048;-78
2022/01/18 15:03:56;;;;;;;9.35;4.60;;;4.30;99.90;;;;;;4878101;29;20045;-76
2022/01/18 15:06:44;;;;;;;13.52;5.00;;;4.30;99.90;;;;;;4873645;29;20781;-77
2022/01/18 15:09:35;;;;;;;9.27;4.63;;;4.30;99.90;;;;;;4883478;29;20048;-79
2022/01/18 15:12:27;;;;;;;7.75;4.53;;;4.30;99.90;;;;;;4881614;29;20044;-77
2022/01/18 15:15:20;;;;;;;13.27;5.47;;;4.30;99.90;;;;;;4886990;29;20521;-78
2022/01/18 15:18:07;;;;;;;10.70;4.80;;;4.30;99.90;;;;;;4873923;29;20065;-80
2022/01/18 15:20:55;;;;;;;13.82;4.40;;;4.30;99.90;;;;;;4880292;29;20366;-78
2022/01/18 15:23:45;;;;;;;12.15;5.43;;;4.30;99.90;;;;;;4882625;29;20051;-78
2022/01/18 15:26:35;;;;;;;12.25;6.07;;;4.20;99.90;;;;;;4881603;29;20100;-78
2022/01/18 15:29:22;;;;;;;15.38;6.00;;;4.20;99.90;;;;;;4881528;29;20144;-79
2022/01/18 15:32:10;;;;;;;20.35;7.05;;;4.10;99.90;;;;;;4889455;29;20071;-79
2022/01/18 15:35:02;;;;;;;18.23;8.57;;;4.10;99.90;;;;;;4868471;29;20127;-79
2022/01/18 15:37:49;;;;;;;12.13;5.72;;;4.00;99.90;;;;;;4880931;29;20048;-77
2022/01/18 15:40:37;;;;;;;11.32;6.05;;;4.00;99.90;;;;;;4869614;29;20044;-79
2022/01/18 15:43:24;;;;;;;14.02;6.28;;;4.00;99.90;;;;;;4878004;29;20059;-78
2022/01/18 15:46:14;;;;;;;11.32;5.90;;;4.00;99.90;;;;;;4878905;29;20049;-79
2022/01/18 15:49:04;;;;;;;8.60;5.20;;;4.00;99.90;;;;;;4888069;29;20056;-78
2022/01/18 15:51:54;;;;;;;13.90;7.07;;;3.90;99.90;;;;;;4883546;29;20057;-79
2022/01/18 15:54:46;;;;;;;14.73;5.65;;;3.90;99.90;;;;;;4881204;29;20488;-80
2022/01/18 15:57:35;;;;;;;10.85;5.40;;;3.80;99.90;;;;;;4879906;29;20048;-80
2022/01/18 16:00:23;;;;;;;13.90;5.70;;;3.80;99.90;;;;;;4896370;29;20049;-78
2022/01/18 16:03:15;;;;;;;10.93;6.47;;;3.80;99.90;;;;;;4878908;29;20045;-78
2022/01/18 16:06:05;;;;;;;14.23;6.45;;;3.80;99.90;;;;;;4887436;29;20049;-79
2022/01/18 16:08:55;;;;;;;21.00;6.50;;;3.80;99.90;;;;;;4889825;29;20364;-78
2022/01/18 16:11:43;;;;;;;16.17;6.28;;;3.80;99.90;;;;;;4889444;29;20139;-80
2022/01/18 16:14:33;;;;;;;18.27;6.97;;;3.70;99.90;;;;;;4893367;29;20044;-80
2022/01/18 16:17:23;;;;;;;11.65;6.60;;;3.70;99.90;;;;;;4893166;29;20045;-79
2022/01/18 16:20:14;;;;;;;13.05;6.97;;;3.70;99.90;;;;;;4869954;29;20055;-79
2022/01/18 16:23:07;;;;;;;13.07;6.15;;;3.70;99.90;;;;;;4883668;29;20052;-79
2022/01/18 16:26:01;;;;;;;10.57;4.93;;;3.60;99.90;;;;;;4880807;29;20056;-78
2022/01/18 16:28:49;;;;;;;15.65;5.10;;;3.60;99.90;;;;;;4867311;29;20057;-79
2022/01/18 16:31:43;;;;;;;8.98;4.65;;;3.60;99.90;;;;;;4893659;29;20059;-80
2022/01/18 16:34:36;;;;;;;12.65;4.63;;;3.60;99.90;;;;;;4869460;29;20048;-80
2022/01/18 16:37:24;;;;;;;11.73;5.00;;;3.50;99.90;;;;;;4884238;29;20145;-82
2022/01/18 16:40:12;;;;;;;10.23;4.85;;;3.50;99.90;;;;;;4879880;29;20057;-79
2022/01/18 16:43:00;;;;;;;10.02;4.85;;;3.50;99.90;;;;;;4892660;29;20424;-80
2022/01/18 16:45:50;;;;;;;11.77;6.30;;;3.50;99.90;;;;;;4889890;29;20439;-79
2022/01/18 16:48:42;;;;;;;9.95;5.07;;;3.50;99.90;;;;;;4885741;29;20049;-80
2022/01/18 16:51:31;;;;;;;7.57;4.30;;;3.50;99.90;;;;;;4882436;29;20048;-81
2022/01/18 16:54:20;;;;;;;11.05;5.93;;;3.50;99.90;;;;;;4877321;29;20071;-80
2022/01/18 16:57:08;;;;;;;7.53;4.40;;;3.50;99.90;;;;;;4884833;29;20068;-80
2022/01/18 16:59:56;;;;;;;10.95;4.15;;;3.50;99.90;;;;;;4882494;29;20055;-79
2022/01/18 17:02:44;;;;;;;7.95;4.45;;;3.50;99.90;;;;;;4873383;29;20596;-79
2022/01/18 17:05:32;;;;;;;7.80;4.50;;;3.40;99.90;;;;;;4899517;29;20191;-79
2022/01/18 17:08:23;;;;;;;7.53;4.50;;;3.40;99.90;;;;;;4900991;29;20458;-80
2022/01/18 17:11:13;;;;;;;8.00;4.22;;;3.40;99.90;;;;;;4885000;29;20055;-81
2022/01/18 17:14:04;;;;;;;11.80;5.13;;;3.40;99.90;;;;;;4882153;29;20048;-83
2022/01/18 17:16:52;;;;;;;8.90;4.55;;;3.40;99.90;;;;;;4900802;29;20100;-78
2022/01/18 17:19:44;;;;;;;11.90;4.70;;;3.40;99.90;;;;;;4884748;29;20143;-80
2022/01/18 17:22:32;;;;;;;12.15;5.10;;;3.40;99.90;;;;;;4891371;29;20055;-81